createdAt,value
2022-10-24T00:00:43.929Z,2.08
2022-10-24T00:02:45.720Z,1.60
2022-10-24T00:04:47.487Z,1.92
2022-10-24T00:06:49.085Z,1.23
2022-10-24T00:08:51.021Z,3.40
2022-10-24T00:10:52.636Z,1.70
2022-10-24T00:12:55.381Z,2.10
2022-10-24T00:14:57.001Z,1.27
2022-10-24T00:16:58.670Z,1.35
2022-10-24T00:19:00.269Z,2.15
2022-10-24T00:21:02.028Z,2.38
2022-10-24T00:23:03.869Z,1.55
2022-10-24T00:25:06.103Z,1.38
2022-10-24T00:27:07.758Z,1.20
2022-10-24T00:29:09.599Z,1.40
2022-10-24T00:31:16.589Z,1.13
2022-10-24T00:33:18.983Z,2.50
2022-10-24T00:35:20.730Z,1.85
2022-10-24T00:37:22.343Z,1.20
2022-10-24T00:39:23.965Z,1.88
2022-10-24T00:41:33.409Z,0.90
2022-10-24T00:43:35.010Z,2.55
2022-10-24T00:45:47.892Z,1.17
2022-10-24T00:47:49.536Z,1.25
2022-10-24T00:50:14.752Z,1.95
2022-10-24T00:52:21.751Z,1.40
2022-10-24T00:54:23.472Z,1.42
2022-10-24T00:56:30.545Z,1.52
2022-10-24T00:58:34.576Z,1.55
2022-10-24T01:00:36.695Z,1.52
2022-10-24T01:02:39.229Z,2.08
2022-10-24T01:04:40.875Z,0.75
2022-10-24T01:06:42.430Z,1.13
2022-10-24T01:08:47.226Z,1.95
2022-10-24T01:11:04.824Z,1.25
2022-10-24T01:13:37.644Z,2.83
2022-10-24T01:15:44.564Z,1.98
2022-10-24T01:18:12.386Z,0.85
2022-10-24T01:20:41.497Z,1.70
2022-10-24T01:23:01.203Z,1.33
2022-10-24T01:25:17.838Z,1.38
2022-10-24T01:27:44.709Z,1.13
2022-10-24T01:29:51.142Z,2.28
2022-10-24T01:32:02.805Z,2.58
2022-10-24T01:34:10.250Z,2.60
2022-10-24T01:36:22.716Z,1.20
2022-10-24T01:38:34.594Z,2.55
2022-10-24T01:40:56.951Z,2.30
2022-10-24T01:43:05.823Z,1.65
2022-10-24T01:45:10.607Z,1.45
2022-10-24T01:47:19.281Z,2.30
2022-10-24T01:49:24.275Z,2.03
2022-10-24T01:51:28.996Z,1.73
2022-10-24T01:53:31.353Z,1.40
2022-10-24T01:55:33.138Z,2.08
2022-10-24T01:57:35.183Z,1.23
2022-10-24T01:59:41.591Z,0.93
2022-10-24T02:01:43.271Z,2.15
2022-10-24T02:03:53.296Z,1.45
2022-10-24T02:06:00.753Z,2.83
2022-10-24T02:08:06.606Z,1.30
2022-10-24T02:10:12.365Z,1.02
2022-10-24T02:12:15.750Z,2.53
2022-10-24T02:14:40.724Z,1.00
2022-10-24T02:16:44.018Z,2.25
2022-10-24T02:18:49.140Z,1.63
2022-10-24T02:21:14.793Z,1.15
2022-10-24T02:23:31.639Z,1.20
2022-10-24T02:25:36.849Z,1.17
2022-10-24T02:27:40.730Z,1.30
2022-10-24T02:29:52.913Z,1.25
2022-10-24T02:31:58.003Z,1.05
2022-10-24T02:34:01.548Z,1.38
2022-10-24T02:36:05.004Z,1.55
2022-10-24T02:38:20.783Z,1.30
2022-10-24T02:40:23.041Z,1.58
2022-10-24T02:44:36.198Z,1.60
2022-10-24T02:46:38.473Z,2.67
2022-10-24T02:48:45.365Z,2.92
2022-10-24T02:50:48.454Z,1.30
2022-10-24T02:52:50.240Z,0.98
2022-10-24T02:54:51.916Z,1.05
2022-10-24T02:56:59.643Z,1.80
2022-10-24T02:59:01.324Z,1.75
2022-10-24T03:01:03.223Z,1.73
2022-10-24T03:03:04.903Z,1.27
2022-10-24T03:05:06.985Z,1.05
2022-10-24T03:07:08.687Z,1.52
2022-10-24T03:09:10.304Z,1.98
2022-10-24T03:11:12.968Z,1.20
2022-10-24T03:13:14.688Z,1.42
2022-10-24T03:15:16.808Z,2.15
2022-10-24T03:17:18.429Z,1.50
2022-10-24T03:19:20.263Z,1.88
2022-10-24T03:21:22.291Z,2.03
2022-10-24T03:23:25.344Z,1.85
2022-10-24T03:25:27.042Z,1.38
2022-10-24T03:27:30.053Z,1.83
2022-10-24T03:29:31.739Z,1.33
2022-10-24T03:31:33.330Z,1.15
2022-10-24T03:33:35.254Z,1.83
2022-10-24T03:35:37.098Z,1.80
2022-10-24T03:37:38.883Z,3.33
2022-10-24T03:39:40.471Z,1.50
2022-10-24T03:41:42.059Z,1.00
2022-10-24T03:43:43.670Z,2.75
2022-10-24T03:45:45.331Z,1.10
2022-10-24T03:47:46.956Z,1.45
2022-10-24T03:49:48.643Z,1.15
2022-10-24T03:51:50.243Z,1.20
2022-10-24T03:53:51.854Z,3.67
2022-10-24T03:55:53.448Z,2.38
2022-10-24T03:57:55.731Z,1.58
2022-10-24T03:59:57.350Z,1.67
2022-10-24T04:02:01.206Z,2.33
2022-10-24T04:04:03.568Z,1.55
2022-10-24T04:06:05.360Z,1.92
2022-10-24T04:08:07.447Z,1.15
2022-10-24T04:10:09.443Z,0.98
2022-10-24T04:12:11.297Z,3.00
2022-10-24T04:14:12.988Z,2.65
2022-10-24T04:16:14.625Z,1.40
2022-10-24T04:18:16.275Z,1.52
2022-10-24T04:20:20.328Z,2.22
2022-10-24T04:22:21.955Z,0.93
2022-10-24T04:24:23.601Z,1.38
2022-10-24T04:26:25.404Z,4.68
2022-10-24T04:28:29.774Z,2.33
2022-10-24T04:30:31.610Z,3.03
2022-10-24T04:32:33.258Z,3.40
2022-10-24T04:34:36.356Z,1.33
2022-10-24T04:36:37.971Z,2.42
2022-10-24T04:38:39.611Z,2.33
2022-10-24T04:40:41.257Z,2.05
2022-10-24T04:42:43.083Z,4.00
2022-10-24T04:44:44.885Z,2.17
2022-10-24T04:46:50.554Z,1.50
2022-10-24T04:48:53.542Z,3.58
2022-10-24T04:50:55.432Z,1.90
2022-10-24T04:52:57.013Z,1.60
2022-10-24T04:54:59.045Z,4.38
2022-10-24T04:57:00.758Z,3.00
2022-10-24T04:59:02.447Z,6.25
2022-10-24T05:01:04.488Z,2.35
2022-10-24T05:03:06.227Z,11.25
2022-10-24T05:05:08.272Z,12.02
2022-10-24T05:07:09.898Z,8.60
2022-10-24T05:09:11.514Z,10.85
2022-10-24T05:11:13.300Z,7.82
2022-10-24T05:13:14.909Z,4.78
2022-10-24T05:15:16.609Z,11.40
2022-10-24T05:17:18.222Z,7.32
2022-10-24T05:19:19.958Z,6.00
2022-10-24T05:21:21.591Z,11.50
2022-10-24T05:23:23.367Z,8.35
2022-10-24T05:25:25.080Z,6.93
2022-10-24T05:27:26.885Z,7.53
2022-10-24T05:29:28.497Z,12.20
2022-10-24T05:33:36.952Z,5.65
2022-10-24T05:35:38.848Z,10.40
2022-10-24T05:37:40.536Z,10.10
2022-10-24T05:39:42.196Z,12.23
2022-10-24T05:41:46.288Z,11.77
2022-10-24T05:43:49.067Z,13.30
2022-10-24T05:47:57.251Z,13.38
2022-10-24T05:49:58.854Z,26.75
2022-10-24T05:52:00.586Z,12.20
2022-10-24T05:54:02.275Z,15.38
2022-10-24T05:56:05.984Z,12.45
2022-10-24T05:58:07.731Z,15.00
2022-10-24T06:00:13.294Z,7.57
2022-10-24T06:02:24.041Z,10.18
2022-10-24T06:04:25.736Z,11.77
2022-10-24T06:06:27.795Z,9.65
2022-10-24T06:08:29.429Z,12.25
2022-10-24T06:10:31.037Z,10.95
2022-10-24T06:12:33.208Z,11.43
2022-10-24T06:14:34.900Z,9.07
2022-10-24T06:16:36.722Z,9.60
2022-10-24T06:18:39.492Z,5.82
2022-10-24T06:20:41.100Z,9.98
2022-10-24T06:22:45.478Z,7.30
2022-10-24T06:24:47.327Z,8.77
2022-10-24T06:26:48.910Z,15.38
2022-10-24T06:28:50.631Z,9.90
2022-10-24T06:30:54.138Z,13.13
2022-10-24T06:32:55.733Z,5.57
2022-10-24T06:34:57.348Z,7.22
2022-10-24T06:36:59.032Z,7.93
2022-10-24T06:39:00.768Z,5.68
2022-10-24T06:41:10.912Z,8.13
2022-10-24T06:43:12.528Z,14.17
2022-10-24T06:45:14.272Z,8.13
2022-10-24T06:47:15.852Z,12.75
2022-10-24T06:49:17.555Z,12.65
2022-10-24T06:51:19.267Z,7.40
2022-10-24T06:55:27.490Z,8.60
2022-10-24T06:57:29.060Z,17.40
2022-10-24T06:59:30.846Z,6.50
2022-10-24T07:01:32.620Z,9.25
2022-10-24T07:03:34.677Z,9.10
2022-10-24T07:05:37.310Z,7.72
2022-10-24T07:07:40.278Z,9.18
2022-10-24T07:09:42.180Z,6.55
2022-10-24T07:11:44.589Z,6.05
2022-10-24T07:13:46.622Z,7.03
2022-10-24T07:15:48.288Z,5.35
2022-10-24T07:17:49.887Z,7.63
2022-10-24T07:19:55.185Z,7.15
2022-10-24T07:21:56.862Z,7.55
2022-10-24T07:23:59.470Z,7.47
2022-10-24T07:26:05.708Z,4.60
2022-10-24T07:28:08.657Z,5.15
2022-10-24T07:30:18.572Z,18.30
2022-10-24T07:32:21.280Z,8.50
2022-10-24T07:34:23.614Z,8.35
2022-10-24T07:36:26.703Z,10.77
2022-10-24T07:38:28.316Z,4.82
2022-10-24T07:40:29.973Z,7.03
2022-10-24T07:42:31.574Z,6.25
2022-10-24T07:44:33.217Z,12.18
2022-10-24T07:46:35.012Z,8.57
2022-10-24T07:48:37.854Z,6.05
2022-10-24T07:50:44.870Z,5.88
2022-10-24T07:52:46.490Z,5.93
2022-10-24T07:54:48.134Z,5.45
2022-10-24T07:56:49.759Z,7.53
2022-10-24T07:58:51.377Z,5.85
2022-10-24T08:00:53.293Z,7.80
2022-10-24T08:02:55.022Z,3.00
2022-10-24T08:04:56.633Z,3.60
2022-10-24T08:06:59.066Z,5.05
2022-10-24T08:09:00.668Z,7.13
2022-10-24T08:11:10.176Z,9.82
2022-10-24T08:13:13.590Z,6.45
2022-10-24T08:15:15.404Z,6.05
2022-10-24T08:17:18.156Z,7.07
2022-10-24T08:19:19.961Z,5.88
2022-10-24T08:21:22.868Z,7.53
2022-10-24T08:23:25.543Z,4.22
2022-10-24T08:25:27.353Z,5.75
2022-10-24T08:27:29.952Z,6.13
2022-10-24T08:29:31.682Z,15.20
2022-10-24T08:31:33.273Z,4.25
2022-10-24T08:33:35.434Z,7.93
2022-10-24T08:35:37.454Z,5.60
2022-10-24T08:37:39.125Z,10.43
2022-10-24T08:39:40.847Z,7.88
2022-10-24T08:41:50.332Z,6.53
2022-10-24T08:43:53.521Z,4.00
2022-10-24T08:46:13.959Z,7.50
2022-10-24T08:48:21.419Z,3.97
2022-10-24T08:50:33.458Z,7.15
2022-10-24T08:53:01.770Z,7.53
2022-10-24T08:55:25.026Z,9.88
2022-10-24T08:57:30.448Z,6.53
2022-10-24T08:59:35.027Z,5.43
2022-10-24T09:01:49.573Z,7.13
2022-10-24T09:03:57.046Z,6.47
2022-10-24T09:06:06.191Z,4.82
2022-10-24T09:08:20.321Z,7.05
2022-10-24T09:10:36.540Z,5.85
2022-10-24T09:12:40.019Z,6.60
2022-10-24T09:14:43.772Z,5.40
2022-10-24T09:16:49.438Z,9.57
2022-10-24T09:18:54.220Z,3.80
2022-10-24T09:20:55.862Z,6.15
2022-10-24T09:23:00.449Z,4.22
2022-10-24T09:25:08.271Z,6.90
2022-10-24T09:29:33.362Z,7.20
2022-10-24T09:31:35.293Z,3.92
2022-10-24T09:33:40.806Z,7.00
2022-10-24T09:35:43.301Z,4.78
2022-10-24T09:38:23.216Z,6.40
2022-10-24T09:40:27.943Z,5.40
2022-10-24T09:42:29.568Z,7.13
2022-10-24T09:44:43.812Z,4.75
2022-10-24T09:46:47.890Z,9.10
2022-10-24T09:48:52.565Z,7.03
2022-10-24T09:50:55.657Z,6.15
2022-10-24T09:52:59.281Z,5.03
2022-10-24T09:55:11.778Z,5.82
2022-10-24T09:59:50.215Z,4.32
2022-10-24T10:01:52.147Z,5.13
2022-10-24T10:04:08.639Z,4.80
2022-10-24T10:06:20.084Z,6.35
2022-10-24T10:08:28.668Z,7.80
2022-10-24T10:10:35.539Z,9.57
2022-10-24T10:12:42.427Z,8.18
2022-10-24T10:14:44.267Z,5.18
2022-10-24T10:16:46.235Z,11.15
2022-10-24T10:18:48.551Z,3.78
2022-10-24T10:21:05.210Z,8.48
2022-10-24T10:23:25.717Z,4.05
2022-10-24T10:25:32.149Z,6.45
2022-10-24T10:27:35.638Z,6.38
2022-10-24T10:29:37.318Z,5.13
2022-10-24T10:31:44.465Z,6.80
2022-10-24T10:34:03.617Z,3.92
2022-10-24T10:36:17.967Z,8.55
2022-10-24T10:38:42.216Z,7.65
2022-10-24T10:40:52.331Z,2.88
2022-10-24T10:43:19.084Z,5.60
2022-10-24T10:45:38.194Z,3.63
2022-10-24T10:48:05.245Z,3.92
2022-10-24T10:50:46.461Z,4.65
2022-10-24T10:52:49.660Z,4.32
2022-10-24T10:55:32.744Z,5.47
2022-10-24T10:57:49.376Z,7.65
2022-10-24T11:00:14.283Z,4.88
2022-10-24T11:02:31.063Z,5.22
2022-10-24T11:04:35.575Z,5.80
2022-10-24T11:06:51.766Z,3.80
2022-10-24T11:09:02.372Z,4.45
2022-10-24T11:11:23.032Z,9.85
2022-10-24T11:13:34.269Z,6.57
2022-10-24T11:15:40.827Z,6.13
2022-10-24T11:17:58.854Z,4.43
2022-10-24T11:20:21.407Z,4.63
2022-10-24T11:22:27.076Z,4.70
2022-10-24T11:24:41.123Z,5.13
2022-10-24T11:26:50.802Z,3.08
2022-10-24T11:29:29.505Z,7.10
2022-10-24T11:31:41.956Z,4.65
2022-10-24T11:33:56.818Z,3.22
2022-10-24T11:36:06.664Z,6.82
2022-10-24T11:38:12.791Z,4.80
2022-10-24T11:40:20.972Z,9.95
2022-10-24T11:42:29.975Z,8.40
2022-10-24T11:45:00.144Z,7.72
2022-10-24T11:47:23.485Z,3.08
2022-10-24T11:49:32.979Z,7.03
2022-10-24T11:51:40.492Z,3.25
2022-10-24T11:53:57.089Z,7.57
2022-10-24T11:56:18.035Z,5.00
2022-10-24T11:58:22.607Z,4.18
2022-10-24T12:00:39.756Z,4.25
2022-10-24T12:03:08.511Z,4.25
2022-10-24T12:05:22.829Z,3.05
2022-10-24T12:08:01.889Z,4.65
2022-10-24T12:10:28.474Z,5.13
2022-10-24T12:13:32.932Z,4.13
2022-10-24T12:15:59.017Z,5.95
2022-10-24T12:18:21.505Z,6.97
2022-10-24T12:20:25.327Z,5.10
2022-10-24T12:22:36.863Z,2.90
2022-10-24T12:24:41.476Z,4.13
2022-10-24T12:26:53.321Z,2.13
2022-10-24T12:29:03.881Z,5.93
2022-10-24T12:31:23.837Z,6.18
2022-10-24T12:33:28.745Z,3.78
2022-10-24T12:35:35.335Z,2.15
2022-10-24T12:37:37.166Z,2.92
2022-10-24T12:39:45.890Z,4.55
2022-10-24T12:41:49.186Z,8.40
2022-10-24T12:43:50.857Z,8.07
2022-10-24T12:45:52.483Z,7.97
2022-10-24T12:50:22.345Z,2.85
2022-10-24T12:52:32.985Z,4.65
2022-10-24T12:54:41.853Z,4.25
2022-10-24T12:56:49.693Z,3.85
2022-10-24T12:59:00.246Z,4.15
2022-10-24T13:01:13.116Z,6.97
2022-10-24T13:03:34.577Z,4.22
2022-10-24T13:05:39.223Z,10.07
2022-10-24T13:08:04.759Z,4.97
2022-10-24T13:10:27.545Z,2.38
2022-10-24T13:12:40.953Z,5.32
2022-10-24T13:15:07.164Z,3.75
2022-10-24T13:17:13.559Z,8.82
2022-10-24T13:19:18.013Z,4.28
2022-10-24T13:23:47.702Z,1.77
2022-10-24T13:25:56.373Z,6.63
2022-10-24T13:28:22.198Z,5.90
2022-10-24T13:30:26.587Z,1.98
2022-10-24T13:32:35.752Z,5.30
2022-10-24T13:34:56.054Z,5.85
2022-10-24T13:37:21.273Z,3.47
2022-10-24T13:39:26.657Z,6.55
2022-10-24T13:41:30.172Z,3.78
2022-10-24T13:43:32.281Z,3.92
2022-10-24T13:45:52.202Z,3.00
2022-10-24T13:47:59.580Z,2.80
2022-10-24T13:50:18.510Z,1.52
2022-10-24T13:52:37.181Z,3.03
2022-10-24T13:54:39.624Z,5.30
2022-10-24T13:56:44.321Z,5.47
2022-10-24T13:58:46.352Z,4.20
2022-10-24T14:01:01.408Z,4.50
2022-10-24T14:03:15.528Z,1.52
2022-10-24T14:05:32.473Z,2.60
2022-10-24T14:07:34.217Z,2.25
2022-10-24T14:09:41.722Z,3.60
2022-10-24T14:11:46.723Z,2.97
2022-10-24T14:13:52.110Z,6.53
2022-10-24T14:15:58.109Z,4.03
2022-10-24T14:18:07.187Z,1.30
2022-10-24T14:20:22.543Z,3.35
2022-10-24T14:22:28.040Z,3.58
2022-10-24T14:24:30.774Z,3.30
2022-10-24T14:26:32.527Z,1.80
2022-10-24T14:28:37.859Z,1.98
2022-10-24T14:30:39.559Z,2.60
2022-10-24T14:32:41.186Z,1.92
2022-10-24T14:34:43.009Z,1.40
2022-10-24T14:36:44.828Z,2.25
2022-10-24T14:38:50.257Z,1.48
2022-10-24T14:41:06.267Z,5.35
2022-10-24T14:45:30.548Z,3.00
2022-10-24T14:47:38.802Z,1.10
2022-10-24T14:49:40.469Z,1.90
2022-10-24T14:51:42.295Z,2.08
2022-10-24T14:53:44.925Z,1.35
2022-10-24T14:55:51.890Z,3.35
2022-10-24T14:57:54.657Z,3.72
2022-10-24T14:59:59.367Z,3.30
2022-10-24T15:02:14.659Z,1.42
2022-10-24T15:04:29.966Z,1.02
2022-10-24T15:06:39.853Z,2.22
2022-10-24T15:08:48.295Z,1.27
2022-10-24T15:11:21.889Z,2.90
2022-10-24T15:13:25.250Z,3.15
2022-10-24T15:15:53.286Z,1.67
2022-10-24T15:18:22.484Z,4.00
2022-10-24T15:20:28.443Z,3.00
2022-10-24T15:22:40.360Z,3.05
2022-10-24T15:24:44.310Z,2.15
2022-10-24T15:26:46.221Z,4.25
2022-10-24T15:28:53.225Z,2.50
2022-10-24T15:30:55.058Z,4.07
2022-10-24T15:32:57.910Z,1.83
2022-10-24T15:34:59.508Z,2.40
2022-10-24T15:37:02.428Z,1.73
2022-10-24T15:39:17.585Z,2.05
2022-10-24T15:41:19.179Z,1.73
2022-10-24T15:43:20.845Z,1.40
2022-10-24T15:45:23.134Z,1.33
2022-10-24T15:47:25.085Z,1.40
2022-10-24T15:49:28.855Z,1.35
2022-10-24T15:51:30.799Z,1.90
2022-10-24T15:53:32.515Z,0.82
2022-10-24T15:55:34.144Z,3.20
2022-10-24T15:57:36.274Z,1.88
2022-10-24T15:59:38.044Z,2.05
2022-10-24T16:01:47.076Z,10.48
2022-10-24T16:03:49.053Z,2.63
2022-10-24T16:05:54.438Z,10.23
2022-10-24T16:07:56.029Z,12.23
2022-10-24T16:09:57.628Z,14.15
2022-10-24T16:11:59.236Z,8.40
2022-10-24T16:14:00.844Z,9.23
2022-10-24T16:16:02.458Z,19.98
2022-10-24T16:18:04.729Z,8.70
2022-10-24T16:20:06.880Z,11.30
2022-10-24T16:22:10.178Z,5.80
2022-10-24T16:24:12.792Z,8.77
2022-10-24T16:26:14.811Z,7.43
2022-10-24T16:28:21.547Z,6.22
2022-10-24T16:30:29.041Z,8.02
2022-10-24T16:32:30.730Z,8.20
2022-10-24T16:34:32.436Z,4.93
2022-10-24T16:36:34.315Z,20.27
2022-10-24T16:38:36.050Z,7.40
2022-10-24T16:40:42.818Z,3.40
2022-10-24T16:42:45.191Z,8.80
2022-10-24T16:44:46.994Z,6.85
2022-10-24T16:46:48.600Z,5.68
2022-10-24T16:48:50.701Z,5.18
2022-10-24T16:50:52.421Z,9.70
2022-10-24T16:52:55.932Z,10.20
2022-10-24T16:54:57.543Z,11.60
2022-10-24T16:56:59.313Z,15.63
2022-10-24T16:59:00.938Z,9.55
2022-10-24T17:01:05.409Z,8.85
2022-10-24T17:03:07.108Z,8.45
2022-10-24T17:05:09.080Z,16.50
2022-10-24T17:07:12.682Z,15.48
2022-10-24T17:09:14.424Z,13.63
2022-10-24T17:11:43.183Z,12.65
2022-10-24T17:13:37.888Z,11.60
2022-10-24T17:15:40.581Z,14.05
2022-10-24T17:17:42.293Z,3.35
2022-10-24T17:19:44.269Z,5.63
2022-10-24T17:21:48.181Z,9.65
2022-10-24T17:23:53.550Z,4.10
2022-10-24T17:25:55.458Z,15.77
2022-10-24T17:27:57.351Z,5.00
2022-10-24T17:29:59.234Z,12.90
2022-10-24T17:32:00.951Z,7.25
2022-10-24T17:34:02.887Z,8.75
2022-10-24T17:36:06.373Z,9.70
2022-10-24T17:38:30.240Z,7.05
2022-10-24T17:40:42.885Z,13.70
2022-10-24T17:42:48.323Z,3.95
2022-10-24T17:44:50.603Z,7.03
2022-10-24T17:46:55.926Z,9.80
2022-10-24T17:48:59.891Z,18.52
2022-10-24T17:51:02.111Z,12.50
2022-10-24T17:53:03.740Z,11.85
2022-10-24T17:55:22.506Z,8.95
2022-10-24T17:57:39.298Z,8.88
2022-10-24T17:59:41.001Z,11.55
2022-10-24T18:01:42.954Z,11.23
2022-10-24T18:03:44.897Z,8.07
2022-10-24T18:05:46.783Z,3.00
2022-10-24T18:07:53.428Z,11.98
2022-10-24T18:10:00.196Z,11.43
2022-10-24T18:12:02.746Z,10.85
2022-10-24T18:14:04.474Z,9.48
2022-10-24T18:16:11.875Z,3.83
2022-10-24T18:18:13.470Z,4.35
2022-10-24T18:20:16.174Z,5.57
2022-10-24T18:22:17.784Z,2.13
2022-10-24T18:24:19.528Z,3.63
2022-10-24T18:26:24.076Z,6.07
2022-10-24T18:28:25.697Z,7.70
2022-10-24T18:30:27.482Z,7.80
2022-10-24T18:32:29.071Z,4.65
2022-10-24T18:34:30.736Z,4.75
2022-10-24T18:36:32.344Z,8.00
2022-10-24T18:38:35.611Z,3.50
2022-10-24T18:40:38.634Z,8.05
2022-10-24T18:42:53.775Z,5.38
2022-10-24T18:44:56.195Z,2.78
2022-10-24T18:47:03.745Z,4.60
2022-10-24T18:49:05.512Z,2.33
2022-10-24T18:51:31.546Z,4.20
2022-10-24T18:53:40.923Z,7.15
2022-10-24T18:55:44.693Z,3.95
2022-10-24T18:57:47.580Z,5.13
2022-10-24T18:59:50.015Z,3.20
2022-10-24T19:02:15.835Z,4.72
2022-10-24T19:04:21.361Z,3.75
2022-10-24T19:06:29.007Z,3.80
2022-10-24T19:08:30.721Z,6.32
2022-10-24T19:10:32.361Z,4.50
2022-10-24T19:12:34.049Z,1.63
2022-10-24T19:14:35.900Z,4.78
2022-10-24T19:16:37.854Z,10.80
2022-10-24T19:18:40.836Z,3.95
2022-10-24T19:20:42.956Z,2.45
2022-10-24T19:22:45.413Z,8.35
2022-10-24T19:24:47.301Z,6.00
2022-10-24T19:26:49.812Z,7.00
2022-10-24T19:28:51.463Z,2.55
2022-10-24T19:30:53.903Z,4.22
2022-10-24T19:32:55.975Z,2.22
2022-10-24T19:34:57.751Z,5.75
2022-10-24T19:36:59.912Z,2.33
2022-10-24T19:39:01.540Z,1.88
2022-10-24T19:41:07.615Z,4.05
2022-10-24T19:43:09.245Z,4.63
2022-10-24T19:45:10.918Z,2.58
2022-10-24T19:47:12.571Z,1.38
2022-10-24T19:49:14.175Z,2.30
2022-10-24T19:51:17.689Z,1.30
2022-10-24T19:53:19.387Z,2.35
2022-10-24T19:55:22.584Z,2.28
2022-10-24T19:57:24.292Z,5.50
2022-10-24T19:59:29.405Z,2.60
2022-10-24T20:01:31.312Z,1.42
2022-10-24T20:03:36.084Z,1.00
2022-10-24T20:05:38.433Z,2.20
2022-10-24T20:07:40.027Z,2.30
2022-10-24T20:09:41.650Z,4.03
2022-10-24T20:11:43.280Z,4.10
2022-10-24T20:13:44.931Z,4.95
2022-10-24T20:15:57.689Z,6.00
2022-10-24T20:17:59.302Z,3.20
2022-10-24T20:20:00.923Z,4.25
2022-10-24T20:22:02.660Z,8.02
2022-10-24T20:24:04.695Z,4.05
2022-10-24T20:26:12.394Z,2.63
2022-10-24T20:28:14.455Z,6.88
2022-10-24T20:30:16.115Z,2.75
2022-10-24T20:32:17.784Z,2.10
2022-10-24T20:34:19.737Z,2.08
2022-10-24T20:36:21.435Z,1.15
2022-10-24T20:38:23.038Z,6.18
2022-10-24T20:40:24.689Z,1.15
2022-10-24T20:42:26.337Z,5.60
2022-10-24T20:44:29.020Z,1.10
2022-10-24T20:46:31.280Z,3.85
2022-10-24T20:48:34.101Z,2.20
2022-10-24T20:50:36.497Z,2.10
2022-10-24T20:52:38.108Z,2.83
2022-10-24T20:54:39.736Z,2.58
2022-10-24T20:56:42.771Z,1.77
2022-10-24T20:58:45.498Z,2.35
2022-10-24T21:00:47.080Z,1.70
2022-10-24T21:02:51.199Z,1.55
2022-10-24T21:04:52.792Z,1.85
2022-10-24T21:06:54.403Z,2.38
2022-10-24T21:08:58.420Z,6.55
2022-10-24T21:11:05.821Z,2.13
2022-10-24T21:13:07.426Z,1.85
2022-10-24T21:15:09.450Z,0.70
2022-10-24T21:17:11.099Z,1.83
2022-10-24T21:19:12.932Z,0.85
2022-10-24T21:21:16.133Z,1.48
2022-10-24T21:23:17.738Z,1.48
2022-10-24T21:25:19.350Z,3.00
2022-10-24T21:27:21.022Z,2.50
2022-10-24T21:29:37.820Z,1.08
2022-10-24T21:31:39.537Z,1.60
2022-10-24T21:33:41.581Z,2.78
2022-10-24T21:35:43.173Z,0.75
2022-10-24T21:37:45.029Z,1.25
2022-10-24T21:39:46.843Z,1.25
2022-10-24T21:41:48.465Z,1.48
2022-10-24T21:43:52.014Z,1.05
2022-10-24T21:46:00.656Z,1.17
2022-10-24T21:48:02.255Z,0.90
2022-10-24T21:50:05.323Z,3.35
2022-10-24T21:52:06.955Z,1.15
2022-10-24T21:54:22.565Z,2.28
2022-10-24T21:56:26.701Z,0.85
2022-10-24T21:58:28.315Z,1.50
2022-10-24T22:00:29.929Z,1.35
2022-10-24T22:02:31.660Z,1.65
2022-10-24T22:04:33.347Z,0.85
2022-10-24T22:06:35.961Z,2.28
2022-10-24T22:08:37.612Z,0.93
2022-10-24T22:10:39.200Z,1.00
2022-10-24T22:12:40.815Z,1.50
2022-10-24T22:14:42.435Z,1.48
2022-10-24T22:16:44.606Z,2.17
2022-10-24T22:18:46.458Z,0.73
2022-10-24T22:20:48.176Z,5.15
2022-10-24T22:22:51.463Z,1.13
2022-10-24T22:24:53.063Z,2.05
2022-10-24T22:26:54.735Z,2.95
2022-10-24T22:28:56.520Z,1.75
2022-10-24T22:30:58.424Z,1.45
2022-10-24T22:33:00.624Z,3.25
2022-10-24T22:35:02.437Z,0.55
2022-10-24T22:37:15.902Z,1.95
2022-10-24T22:39:20.421Z,1.48
2022-10-24T22:41:22.972Z,1.33
2022-10-24T22:43:24.842Z,1.00
2022-10-24T22:45:26.948Z,0.80
2022-10-24T22:47:31.299Z,0.65
2022-10-24T22:50:05.963Z,1.00
2022-10-24T22:52:11.278Z,1.52
2022-10-24T22:54:19.006Z,0.95
2022-10-24T22:56:27.260Z,0.60
2022-10-24T22:58:29.180Z,0.63
2022-10-24T23:00:31.434Z,1.17
2022-10-24T23:02:40.387Z,0.70
2022-10-24T23:04:51.191Z,0.65
2022-10-24T23:07:11.377Z,1.50
2022-10-24T23:09:13.144Z,1.05
2022-10-24T23:11:15.098Z,1.95
2022-10-24T23:13:16.844Z,1.88
2022-10-24T23:15:20.296Z,1.05
2022-10-24T23:17:27.123Z,0.80
2022-10-24T23:19:31.345Z,0.82
2022-10-24T23:21:41.655Z,0.93
2022-10-24T23:23:43.463Z,0.50
2022-10-24T23:26:23.514Z,0.52
2022-10-24T23:28:35.653Z,0.80
2022-10-24T23:30:37.563Z,1.83
2022-10-24T23:32:39.798Z,0.77
2022-10-24T23:34:41.639Z,0.68
2022-10-24T23:36:44.633Z,0.90
2022-10-24T23:38:46.529Z,1.13
2022-10-24T23:40:48.412Z,0.70
2022-10-24T23:42:52.200Z,1.45
2022-10-24T23:44:54.160Z,0.65
2022-10-24T23:47:33.791Z,1.15
2022-10-24T23:49:51.617Z,0.73
2022-10-24T23:52:15.187Z,0.50
2022-10-24T23:54:24.012Z,0.65
2022-10-24T23:56:29.891Z,0.50
2022-10-24T23:58:31.483Z,0.95
